Aérodrome :
LOGIN :

S'inscrire | Disclaimer

   EN    FR    IT 

 










Légende :    VFR   VFR Marginal   IFR   IFR Intensif   IFR Très Intensif
Visi : 
Plafond : 
>= 8 km
>= 3000ft
5 à 8 km
1000 à 3000 ft
1500m à 5 km
500 à 1000 ft
800 à 1500m
200 à 500 ft
< 800m
< 200 ft
Symboles :   Orages  Brouillard  Fortes neiges  Fortes précipitations  Vent > 20 kt
SIGMETs :   Divers  Orages  Givrage  Turbulence  Onde Orograph.  Cendres Volcan.






- Altitude de l'aérodrome : 52 ft
- Code IATA : RNN


EKRN - Bornholm Ronne

DERNIER METAR :
  • 141250Z AUTO 12008KT 9999 FEW044/// BKN088/// 16/11 Q1014

METARs EXPIRÉS :
  • 141220Z AUTO 14007KT 9999 OVC094/// 15/11 Q1014
  • 141150Z AUTO 14007KT 9999 BKN100/// 16/11 Q1014
  • 141120Z AUTO 14007KT 9999 FEW098/// 15/11 Q1014
  • 141050Z AUTO 14007KT 9999 NCD 16/11 Q1014
  • 141020Z AUTO 15007KT 9999 NCD 16/11 Q1014
  • 140950Z AUTO 16005KT 130V200 9999 FEW082/// 16/11 Q1014
  • 140920Z AUTO 16004KT 9999 SCT081/// 16/13 Q1014
  • 140850Z AUTO 16005KT 9999 OVC091/// 15/12 Q1014
  • 140820Z AUTO 16006KT 9999 OVC120/// 16/12 Q1014
  • 140750Z AUTO 16006KT 9999 BKN130/// 15/12 Q1014

TAF TAF EKRN
Valide du 14 à 12h jusqu'au 14 à 21h UTC


141109Z 1412/1421 14008KT 9999 SCT030 BKN100



MET'MAP, la Météo Aéronautique d'un coup d'oeil ! - Copyright ORBIFLY Décembre 2007 - Disclaimer

ORBIFLY MET'MAP TEAM :

Programmation & Développement : Alexandra Zaïnal
Sur une idée originale de : Baudouin d'Aumeries
Soutien technique & logistique : Manuel Goepfert
Assistance : Marc-Olivier Méhu




SOURCES & CREDITS :

   NOAA